createdAt,value
2018-07-11T00:00:58.545Z,18.30
2018-07-11T00:03:38.916Z,18.30
2018-07-11T00:06:08.140Z,18.20
2018-07-11T00:08:37.443Z,18.20
2018-07-11T00:11:06.804Z,18.30
2018-07-11T00:13:36.119Z,18.20
2018-07-11T00:16:05.609Z,18.10
2018-07-11T00:18:35.335Z,18.00
2018-07-11T00:21:04.620Z,18.10
2018-07-11T00:23:37.423Z,18.00
2018-07-11T00:26:08.072Z,17.90
2018-07-11T00:28:37.350Z,17.90
2018-07-11T00:33:35.460Z,18.00
2018-07-11T00:36:04.712Z,18.10
2018-07-11T00:38:34.032Z,18.20
2018-07-11T00:41:04.097Z,18.20
2018-07-11T00:46:05.343Z,18.10
2018-07-11T00:48:35.299Z,18.00
2018-07-11T00:51:04.726Z,17.90
2018-07-11T00:53:34.793Z,17.90
2018-07-11T00:56:04.046Z,17.90
2018-07-11T00:58:49.535Z,17.90
2018-07-11T01:01:19.691Z,17.90
2018-07-11T01:03:54.600Z,17.80
2018-07-11T01:06:24.011Z,17.80
2018-07-11T01:08:56.250Z,17.80
2018-07-11T01:11:25.906Z,17.80
2018-07-11T01:13:55.151Z,17.90
2018-07-11T01:16:24.453Z,18.00
2018-07-11T01:19:00.193Z,18.00
2018-07-11T01:21:30.140Z,18.00
2018-07-11T01:23:59.467Z,17.90
2018-07-11T01:26:35.192Z,17.90
2018-07-11T01:29:05.106Z,17.90
2018-07-11T01:31:34.374Z,17.80
2018-07-11T01:34:03.652Z,17.70
2018-07-11T01:36:33.115Z,17.80
2018-07-11T01:39:02.832Z,17.80
2018-07-11T01:41:32.196Z,17.70
2018-07-11T01:44:01.427Z,17.70
2018-07-11T01:47:02.401Z,17.50
2018-07-11T01:49:33.244Z,17.50
2018-07-11T01:53:12.105Z,17.20
2018-07-11T01:55:41.338Z,17.40
2018-07-11T01:58:10.652Z,17.50
2018-07-11T02:00:39.979Z,17.60
2018-07-11T02:03:09.451Z,17.70
2018-07-11T02:05:38.799Z,17.80
2018-07-11T02:08:08.187Z,17.80
2018-07-11T02:10:37.426Z,17.40
2018-07-11T02:13:06.866Z,17.60
2018-07-11T02:15:36.423Z,17.60
2018-07-11T02:18:05.617Z,17.60
2018-07-11T02:20:34.884Z,17.50
2018-07-11T02:23:04.197Z,17.50
2018-07-11T02:25:33.477Z,17.60
2018-07-11T02:28:02.646Z,17.80
2018-07-11T02:30:32.033Z,17.90
2018-07-11T02:33:01.359Z,17.90
2018-07-11T02:35:30.614Z,18.00
2018-07-11T02:37:59.857Z,18.00
2018-07-11T02:40:29.101Z,18.10
2018-07-11T02:42:58.273Z,18.00
2018-07-11T02:45:27.574Z,18.10
2018-07-11T02:47:56.817Z,18.10
2018-07-11T02:50:26.083Z,18.10
2018-07-11T02:52:55.383Z,18.10
2018-07-11T02:55:24.688Z,18.20
2018-07-11T02:57:54.086Z,18.10
2018-07-11T03:00:23.397Z,18.10
2018-07-11T03:02:52.736Z,18.10
2018-07-11T03:05:22.636Z,18.00
2018-07-11T03:07:51.998Z,17.90
2018-07-11T03:10:21.342Z,17.80
2018-07-11T03:12:50.665Z,17.80
2018-07-11T03:15:20.234Z,17.80
2018-07-11T03:17:50.229Z,17.80
2018-07-11T03:20:20.455Z,17.80
2018-07-11T03:22:49.790Z,17.80
2018-07-11T03:25:19.074Z,17.80
2018-07-11T03:27:48.336Z,17.80
2018-07-11T03:30:17.649Z,17.70
2018-07-11T03:32:46.834Z,17.80
2018-07-11T03:35:16.074Z,17.80
2018-07-11T03:37:45.377Z,17.80
2018-07-11T03:40:14.821Z,17.90
2018-07-11T03:42:44.090Z,17.80
2018-07-11T03:45:13.450Z,17.80
2018-07-11T03:47:42.748Z,17.90
2018-07-11T03:50:12.033Z,17.80
2018-07-11T03:52:41.320Z,17.80
2018-07-11T03:55:10.551Z,17.70
2018-07-11T03:57:39.792Z,17.80
2018-07-11T04:00:09.087Z,17.70
2018-07-11T04:02:38.346Z,17.70
2018-07-11T04:05:07.739Z,17.80
2018-07-11T04:07:37.086Z,17.80
2018-07-11T04:10:06.370Z,17.90
2018-07-11T04:12:35.653Z,17.90
2018-07-11T04:15:04.932Z,17.80
2018-07-11T04:17:34.224Z,17.70
2018-07-11T04:20:03.518Z,17.90
2018-07-11T04:25:01.592Z,17.90
2018-07-11T04:27:30.954Z,17.90
2018-07-11T04:30:00.366Z,18.00
2018-07-11T04:32:29.772Z,18.00
2018-07-11T04:34:59.093Z,18.00
2018-07-11T04:37:28.361Z,18.00
2018-07-11T04:39:57.766Z,18.10
2018-07-11T04:42:27.075Z,18.00
2018-07-11T04:44:56.408Z,18.10
2018-07-11T04:47:26.018Z,18.10
2018-07-11T04:49:55.378Z,18.10
2018-07-11T04:52:24.730Z,18.10
2018-07-11T04:54:54.114Z,18.20
2018-07-11T04:57:23.313Z,18.20
2018-07-11T05:02:21.405Z,18.10
2018-07-11T05:04:50.659Z,17.90
2018-07-11T05:07:19.764Z,17.90
2018-07-11T05:09:48.994Z,18.00
2018-07-11T05:12:18.190Z,17.90
2018-07-11T05:14:47.423Z,17.70
2018-07-11T05:17:16.636Z,17.70
2018-07-11T05:19:45.857Z,17.70
2018-07-11T05:22:15.040Z,17.70
2018-07-11T05:24:44.186Z,17.80
2018-07-11T05:27:13.537Z,17.90
2018-07-11T05:29:42.739Z,18.00
2018-07-11T05:32:11.980Z,18.00
2018-07-11T05:34:41.208Z,18.10
2018-07-11T05:37:10.399Z,18.10
2018-07-11T05:39:39.593Z,18.00
2018-07-11T05:42:08.922Z,18.00
2018-07-11T05:44:38.221Z,18.00
2018-07-11T05:47:07.653Z,17.90
2018-07-11T05:49:36.889Z,17.90
2018-07-11T05:52:06.439Z,17.80
2018-07-11T05:54:35.701Z,17.60
2018-07-11T05:57:05.591Z,17.60
2018-07-11T05:59:34.872Z,17.70
2018-07-11T06:02:04.167Z,17.80
2018-07-11T06:04:33.441Z,17.90
2018-07-11T06:07:02.637Z,17.90
2018-07-11T06:09:31.998Z,18.20
2018-07-11T06:12:01.290Z,18.40
2018-07-11T06:14:30.639Z,18.60
2018-07-11T06:17:00.740Z,18.50
2018-07-11T06:19:30.021Z,18.40
2018-07-11T06:21:59.662Z,18.50
2018-07-11T06:24:28.934Z,18.50
2018-07-11T06:26:58.182Z,18.40
2018-07-11T06:29:27.396Z,18.50
2018-07-11T06:31:56.599Z,18.50
2018-07-11T06:34:25.963Z,18.50
2018-07-11T06:36:55.144Z,18.50
2018-07-11T06:39:24.405Z,18.40
2018-07-11T06:41:53.641Z,18.60
2018-07-11T06:44:22.867Z,18.70
2018-07-11T06:46:52.025Z,18.80
2018-07-11T06:51:49.950Z,18.60
2018-07-11T06:54:19.126Z,18.70
2018-07-11T06:56:48.311Z,18.60
2018-07-11T06:59:17.518Z,18.40
2018-07-11T07:01:46.761Z,18.30
2018-07-11T07:04:16.110Z,18.20
2018-07-11T07:06:45.441Z,18.80
2018-07-11T07:09:14.659Z,19.60
2018-07-11T07:11:43.837Z,20.00
2018-07-11T07:14:13.066Z,20.50
2018-07-11T07:16:42.388Z,21.10
2018-07-11T07:19:11.652Z,21.00
2018-07-11T07:21:40.880Z,20.60
2018-07-11T07:24:10.148Z,20.30
2018-07-11T07:26:39.412Z,20.30
2018-07-11T07:29:08.711Z,20.80
2018-07-11T07:31:38.867Z,21.40
2018-07-11T07:34:08.172Z,21.50
2018-07-11T07:36:39.605Z,21.10
2018-07-11T07:39:08.967Z,21.40
2018-07-11T07:41:39.097Z,21.90
2018-07-11T07:44:11.410Z,21.40
2018-07-11T07:46:44.487Z,20.70
2018-07-11T07:49:14.459Z,20.20
2018-07-11T07:51:43.722Z,19.80
2018-07-11T07:54:13.545Z,19.40
2018-07-11T07:56:44.842Z,19.40
2018-07-11T07:59:14.123Z,19.40
2018-07-11T08:04:13.669Z,20.80
2018-07-11T08:06:42.974Z,20.80
2018-07-11T08:09:12.344Z,21.40
2018-07-11T08:11:41.559Z,21.70
2018-07-11T08:14:11.457Z,21.20
2018-07-11T08:16:40.773Z,20.30
2018-07-11T08:19:10.016Z,20.10
2018-07-11T08:21:39.233Z,20.30
2018-07-11T08:24:19.821Z,21.00
2018-07-11T08:28:03.302Z,22.10
2018-07-11T08:31:46.384Z,23.40
2018-07-11T08:36:57.578Z,23.20
2018-07-11T08:41:43.798Z,23.30
2018-07-11T08:44:22.091Z,24.70
2018-07-11T08:47:02.958Z,22.70
2018-07-11T08:49:45.442Z,21.60
2018-07-11T08:52:28.050Z,20.60
2018-07-11T08:57:11.386Z,20.30
2018-07-11T08:59:55.170Z,20.10
2018-07-11T09:04:47.668Z,19.80
2018-07-11T09:07:58.809Z,19.70
2018-07-11T09:10:38.819Z,19.70
2018-07-11T09:13:24.019Z,19.80
2018-07-11T09:16:15.477Z,20.00
2018-07-11T09:18:53.860Z,20.10
2018-07-11T09:21:34.244Z,20.40
2018-07-11T09:24:43.099Z,20.30
2018-07-11T09:27:13.008Z,20.10
2018-07-11T09:29:43.003Z,20.50
2018-07-11T09:32:13.425Z,20.70
2018-07-11T09:34:43.924Z,20.60
2018-07-11T09:37:13.300Z,20.50
2018-07-11T09:39:43.089Z,20.50
2018-07-11T09:42:12.489Z,20.70
2018-07-11T09:44:41.667Z,20.10
2018-07-11T09:49:45.273Z,20.40
2018-07-11T09:52:14.540Z,20.70
2018-07-11T09:54:43.709Z,21.00
2018-07-11T09:57:13.077Z,21.40
2018-07-11T09:59:42.382Z,21.80
2018-07-11T10:02:11.680Z,22.00
2018-07-11T10:04:41.412Z,22.10
2018-07-11T10:07:10.978Z,22.10
2018-07-11T10:09:40.214Z,22.20
2018-07-11T10:12:09.634Z,22.20
2018-07-11T10:14:38.813Z,22.10
2018-07-11T10:17:08.059Z,21.40
2018-07-11T10:19:37.369Z,21.20
2018-07-11T10:22:06.698Z,20.90
2018-07-11T10:27:05.258Z,20.60
2018-07-11T10:29:34.711Z,20.60
2018-07-11T10:32:04.186Z,20.50
2018-07-11T10:34:33.575Z,20.60
2018-07-11T10:37:03.091Z,20.70
2018-07-11T10:39:32.570Z,20.70
2018-07-11T10:42:02.281Z,20.70
2018-07-11T10:44:31.754Z,20.50
2018-07-11T10:47:07.665Z,20.60
2018-07-11T10:49:37.243Z,20.80
2018-07-11T10:52:07.490Z,21.00
2018-07-11T10:54:36.735Z,20.90
2018-07-11T10:57:06.028Z,20.90
2018-07-11T10:59:35.339Z,20.70
2018-07-11T11:02:04.714Z,20.10
2018-07-11T11:04:34.039Z,20.00
2018-07-11T11:07:04.563Z,20.20
2018-07-11T11:09:34.557Z,20.40
2018-07-11T11:12:04.053Z,20.30
2018-07-11T11:14:33.638Z,20.30
2018-07-11T11:17:02.898Z,20.20
2018-07-11T11:19:32.222Z,19.90
2018-07-11T11:22:01.645Z,19.80
2018-07-11T11:24:31.018Z,20.00
2018-07-11T11:27:00.525Z,19.80
2018-07-11T11:29:29.922Z,19.70
2018-07-11T11:31:59.212Z,19.70
2018-07-11T11:34:28.633Z,19.80
2018-07-11T11:36:57.902Z,19.70
2018-07-11T11:39:27.151Z,19.90
2018-07-11T11:41:56.579Z,20.10
2018-07-11T11:44:26.091Z,20.10
2018-07-11T11:46:59.834Z,20.30
2018-07-11T11:49:29.285Z,20.60
2018-07-11T11:51:58.713Z,20.80
2018-07-11T11:54:28.123Z,20.60
2018-07-11T11:56:57.391Z,20.60
2018-07-11T11:59:26.750Z,20.70
2018-07-11T12:01:56.082Z,20.80
2018-07-11T12:04:25.387Z,21.00
2018-07-11T12:06:54.701Z,21.00
2018-07-11T12:09:24.052Z,21.20
2018-07-11T12:11:53.734Z,21.40
2018-07-11T12:14:23.151Z,21.40
2018-07-11T12:16:52.433Z,21.10
2018-07-11T12:21:50.563Z,20.70
2018-07-11T12:24:20.622Z,20.80
2018-07-11T12:26:49.930Z,21.00
2018-07-11T12:29:19.275Z,21.00
2018-07-11T12:31:48.684Z,21.10
2018-07-11T12:34:17.992Z,21.00
2018-07-11T12:36:47.240Z,21.10
2018-07-11T12:39:16.800Z,20.90
2018-07-11T12:41:46.215Z,20.90
2018-07-11T12:44:15.686Z,20.90
2018-07-11T12:46:45.131Z,21.00
2018-07-11T12:49:14.547Z,21.00
2018-07-11T12:51:43.940Z,21.00
2018-07-11T12:54:13.367Z,21.00
2018-07-11T12:56:42.797Z,21.00
2018-07-11T12:59:12.509Z,20.90
2018-07-11T13:01:41.992Z,21.00
2018-07-11T13:04:11.358Z,21.10
2018-07-11T13:06:41.275Z,21.10
2018-07-11T13:09:10.579Z,21.00
2018-07-11T13:11:39.919Z,21.10
2018-07-11T13:14:09.235Z,21.20
2018-07-11T13:16:38.599Z,21.20
2018-07-11T13:19:07.886Z,21.20
2018-07-11T13:21:37.206Z,21.20
2018-07-11T13:24:06.538Z,21.10
2018-07-11T13:26:35.862Z,21.10
2018-07-11T13:29:05.253Z,21.20
2018-07-11T13:31:34.520Z,21.00
2018-07-11T13:34:03.922Z,20.90
2018-07-11T13:36:33.176Z,21.10
2018-07-11T13:39:02.479Z,21.00
2018-07-11T13:41:31.680Z,20.70
2018-07-11T13:44:01.051Z,20.60
2018-07-11T13:46:30.289Z,20.60
2018-07-11T13:48:59.546Z,20.70
2018-07-11T13:51:28.836Z,20.70
2018-07-11T13:53:58.225Z,20.80
2018-07-11T13:56:27.629Z,20.90
2018-07-11T13:58:56.860Z,21.00
2018-07-11T14:01:26.159Z,21.00
2018-07-11T14:03:55.453Z,20.90
2018-07-11T14:06:24.726Z,20.80
2018-07-11T14:08:54.376Z,21.00
2018-07-11T14:11:23.699Z,20.90
2018-07-11T14:13:52.893Z,21.00
2018-07-11T14:16:22.732Z,21.00
2018-07-11T14:18:52.006Z,21.10
2018-07-11T14:21:22.641Z,20.90
2018-07-11T14:23:52.130Z,20.80
2018-07-11T14:26:21.738Z,21.00
2018-07-11T14:28:52.723Z,20.70
2018-07-11T14:31:32.113Z,21.00
2018-07-11T14:34:03.387Z,21.20
2018-07-11T14:36:33.374Z,21.20
2018-07-11T14:39:02.890Z,21.20
2018-07-11T14:41:32.229Z,21.30
2018-07-11T14:44:01.740Z,21.40
2018-07-11T14:46:31.626Z,21.40
2018-07-11T14:49:01.299Z,21.40
2018-07-11T14:51:30.711Z,21.20
2018-07-11T14:54:00.054Z,21.00
2018-07-11T14:56:29.866Z,20.90
2018-07-11T14:58:59.694Z,20.90
2018-07-11T15:01:28.968Z,20.90
2018-07-11T15:03:58.265Z,21.00
2018-07-11T15:06:27.559Z,21.10
2018-07-11T15:08:56.963Z,21.20
2018-07-11T15:11:26.182Z,21.20
2018-07-11T15:13:55.683Z,21.20
2018-07-11T15:16:25.013Z,21.20
2018-07-11T15:18:54.560Z,21.20
2018-07-11T15:21:23.846Z,21.10
2018-07-11T15:23:53.235Z,21.20
2018-07-11T15:26:22.642Z,21.20
2018-07-11T15:28:52.111Z,21.30
2018-07-11T15:31:21.479Z,21.30
2018-07-11T15:33:52.130Z,21.30
2018-07-11T15:36:21.498Z,21.40
2018-07-11T15:38:50.940Z,21.50
2018-07-11T15:41:20.323Z,21.50
2018-07-11T15:43:49.662Z,21.60
2018-07-11T15:46:18.989Z,21.50
2018-07-11T15:48:49.567Z,21.60
2018-07-11T15:51:18.946Z,21.60
2018-07-11T15:53:48.330Z,21.80
2018-07-11T15:56:17.756Z,21.80
2018-07-11T15:58:51.721Z,21.80
2018-07-11T16:01:21.046Z,21.90
2018-07-11T16:03:50.556Z,21.90
2018-07-11T16:06:19.850Z,22.00
2018-07-11T16:08:51.099Z,22.00
2018-07-11T16:11:20.426Z,21.80
2018-07-11T16:13:49.946Z,21.80
2018-07-11T16:16:19.225Z,21.70
2018-07-11T16:18:48.537Z,21.80
2018-07-11T16:21:17.847Z,21.80
2018-07-11T16:23:47.858Z,21.80
2018-07-11T16:26:17.462Z,21.70
2018-07-11T16:28:46.826Z,21.90
2018-07-11T16:31:16.310Z,21.90
2018-07-11T16:33:45.709Z,21.90
2018-07-11T16:36:15.351Z,21.90
2018-07-11T16:38:44.836Z,22.00
2018-07-11T16:41:14.066Z,22.00
2018-07-11T16:43:46.902Z,22.00
2018-07-11T16:48:45.262Z,21.90
2018-07-11T16:51:16.582Z,21.90
2018-07-11T16:53:46.594Z,22.00
2018-07-11T16:56:15.971Z,22.00
2018-07-11T16:58:52.780Z,21.90
2018-07-11T17:01:31.008Z,21.90
2018-07-11T17:04:02.499Z,21.80
2018-07-11T17:06:31.882Z,21.80
2018-07-11T17:09:01.550Z,21.70
2018-07-11T17:11:30.818Z,21.70
2018-07-11T17:14:02.660Z,21.60
2018-07-11T17:16:43.275Z,21.50
2018-07-11T17:19:21.915Z,21.60
2018-07-11T17:21:51.381Z,21.50
2018-07-11T17:24:22.491Z,21.60
2018-07-11T17:26:55.541Z,21.50
2018-07-11T17:29:28.262Z,21.60
2018-07-11T17:32:07.492Z,21.60
2018-07-11T17:34:38.529Z,21.50
2018-07-11T17:37:10.016Z,21.40
2018-07-11T17:39:55.177Z,21.30
2018-07-11T17:42:26.358Z,21.20
2018-07-11T17:45:13.310Z,21.10
2018-07-11T17:49:57.243Z,21.00
2018-07-11T17:52:27.665Z,21.00
2018-07-11T17:55:10.127Z,20.90
2018-07-11T17:57:48.626Z,20.90
2018-07-11T18:00:28.240Z,20.90
2018-07-11T18:03:11.231Z,20.90
2018-07-11T18:06:54.042Z,20.90
2018-07-11T18:09:23.640Z,21.00
2018-07-11T18:11:55.293Z,20.90
2018-07-11T18:14:34.018Z,20.80
2018-07-11T18:17:17.651Z,20.80
2018-07-11T18:20:59.908Z,20.90
2018-07-11T18:23:40.681Z,20.90
2018-07-11T18:26:23.194Z,20.80
2018-07-11T18:29:11.637Z,20.80
2018-07-11T18:31:49.453Z,20.80
2018-07-11T18:34:30.682Z,20.80
2018-07-11T18:38:09.259Z,20.80
2018-07-11T18:40:52.580Z,20.80
2018-07-11T18:43:32.325Z,20.70
2018-07-11T18:47:09.088Z,20.70
2018-07-11T18:49:47.700Z,20.60
2018-07-11T18:52:21.527Z,20.60
2018-07-11T18:55:08.054Z,20.60
2018-07-11T18:57:52.388Z,20.60
2018-07-11T19:00:32.450Z,20.70
2018-07-11T19:03:26.773Z,20.70
2018-07-11T19:06:02.716Z,20.70
2018-07-11T19:08:42.429Z,20.60
2018-07-11T19:11:33.010Z,20.60
2018-07-11T19:14:06.539Z,20.60
2018-07-11T19:16:50.572Z,20.50
2018-07-11T19:19:27.097Z,20.50
2018-07-11T19:22:01.456Z,20.50
2018-07-11T19:24:41.881Z,20.50
2018-07-11T19:27:16.306Z,20.40
2018-07-11T19:30:03.685Z,20.50
2018-07-11T19:34:50.636Z,20.50
2018-07-11T19:37:33.624Z,20.40
2018-07-11T19:42:19.890Z,20.30
2018-07-11T19:45:06.289Z,20.30
2018-07-11T19:48:50.017Z,20.30
2018-07-11T19:51:44.764Z,20.30
2018-07-11T19:54:22.946Z,20.30
2018-07-11T19:56:52.149Z,20.30
2018-07-11T19:59:21.377Z,20.40
2018-07-11T20:01:50.630Z,20.40
2018-07-11T20:04:19.844Z,20.40
2018-07-11T20:06:49.191Z,20.40
2018-07-11T20:09:18.460Z,20.40
2018-07-11T20:11:47.683Z,20.40
2018-07-11T20:14:17.080Z,20.40
2018-07-11T20:16:46.286Z,20.40
2018-07-11T20:19:15.786Z,20.40
2018-07-11T20:21:45.043Z,20.40
2018-07-11T20:24:14.929Z,20.40
2018-07-11T20:26:44.122Z,20.40
2018-07-11T20:29:13.738Z,20.40
2018-07-11T20:34:12.443Z,20.40
2018-07-11T20:36:41.651Z,20.30
2018-07-11T20:39:11.154Z,20.40
2018-07-11T20:41:40.539Z,20.30
2018-07-11T20:44:09.726Z,20.20
2018-07-11T20:46:38.980Z,20.20
2018-07-11T20:49:13.546Z,20.30
2018-07-11T20:51:42.813Z,20.30
2018-07-11T20:54:11.997Z,20.20
2018-07-11T20:56:41.246Z,20.20
2018-07-11T20:59:21.789Z,20.20
2018-07-11T21:02:02.299Z,20.30
2018-07-11T21:04:42.842Z,20.20
2018-07-11T21:10:00.310Z,20.20
2018-07-11T21:16:46.237Z,20.10
2018-07-11T21:19:16.342Z,19.80
2018-07-11T21:21:45.509Z,19.60
2018-07-11T21:24:14.841Z,19.70
2018-07-11T21:26:44.042Z,19.80
2018-07-11T21:29:13.227Z,19.80
2018-07-11T21:31:42.395Z,19.90
2018-07-11T21:34:11.567Z,19.80
2018-07-11T21:36:40.807Z,19.80
2018-07-11T21:39:10.002Z,19.80
2018-07-11T21:41:39.229Z,19.80
2018-07-11T21:44:08.489Z,19.80
2018-07-11T21:46:37.737Z,19.60
2018-07-11T21:49:06.889Z,19.50
2018-07-11T21:51:36.098Z,19.50
2018-07-11T21:54:05.393Z,19.60
2018-07-11T21:56:34.649Z,19.50
2018-07-11T21:59:03.941Z,19.40
2018-07-11T22:01:33.131Z,19.50
2018-07-11T22:04:02.283Z,19.50
2018-07-11T22:06:31.593Z,19.60
2018-07-11T22:09:00.946Z,19.50
2018-07-11T22:11:30.255Z,19.50
2018-07-11T22:13:59.437Z,19.50
2018-07-11T22:16:28.734Z,19.50
2018-07-11T22:18:57.885Z,19.60
2018-07-11T22:21:25.923Z,19.70
2018-07-11T22:23:53.952Z,19.50
2018-07-11T22:26:22.043Z,19.60
2018-07-11T22:28:50.269Z,19.60
2018-07-11T22:31:18.332Z,19.50
2018-07-11T22:33:46.367Z,19.60
2018-07-11T22:36:14.370Z,19.60
2018-07-11T22:38:42.375Z,19.60
2018-07-11T22:41:10.422Z,19.60
2018-07-11T22:43:38.441Z,19.50
2018-07-11T22:46:06.469Z,19.40
2018-07-11T22:48:34.539Z,19.40
2018-07-11T22:51:02.554Z,19.30
2018-07-11T22:53:30.647Z,19.30
2018-07-11T22:55:58.645Z,19.20
2018-07-11T22:58:26.714Z,19.10
2018-07-11T23:00:54.773Z,19.10
2018-07-11T23:03:22.805Z,19.20
2018-07-11T23:05:50.859Z,19.30
2018-07-11T23:08:18.943Z,19.30
2018-07-11T23:10:46.969Z,19.30
2018-07-11T23:13:15.038Z,19.30
2018-07-11T23:15:43.086Z,19.50
2018-07-11T23:18:11.205Z,19.30
2018-07-11T23:20:39.204Z,19.40
2018-07-11T23:23:07.321Z,19.40
2018-07-11T23:25:35.367Z,19.50
2018-07-11T23:28:03.433Z,19.60
2018-07-11T23:30:31.465Z,19.60
2018-07-11T23:32:59.547Z,19.50
2018-07-11T23:35:27.556Z,19.50
2018-07-11T23:37:55.600Z,19.30
2018-07-11T23:42:53.303Z,19.40
2018-07-11T23:45:21.326Z,19.50
2018-07-11T23:47:49.359Z,19.50
2018-07-11T23:50:17.429Z,19.30
2018-07-11T23:52:45.458Z,19.30
2018-07-11T23:55:13.470Z,19.20
2018-07-11T23:57:41.498Z,19.20
